Llanfyrnach, United Kingdom
Current Conditions -  °F | °C
As of 2:50 PM on Thursday 23 Oct 2014 (Local Time) from EGOP Reporting Station
Light Rain Light Rain  
Wind Chill: 59°   Ceiling: 2800
Heat Index: 59°   Visibility: 1.8mi
Dew Point: 57°   Wind: 25mph
Humidity: 94%   Direction: 230°SW
Pressure: 30"   Gusts: NA
Location:  51.99°N, 4.5°W
Report Text: EGOP 231350Z 23022KT 3000 -RADZ FEW008 SCT014 BKN028 15/14 Q1016 YLO1
Loading
Personal Weather Stations






























Interactive Weather Map
Tropical Storm Tracking
New forecast layout! Learn more

10-Day Weather Forecast

Advertisements
Track Severe Weather on mobile